Terminal Aerodrome Forecast
Issued by NWS

Current Version | Previous Version | Text Only | Print | Product List | Glossary On
Versions: 1 2 3 4 5 6 7 8 9 10 11 12
000
FTAK31 PAJN 232327
TAFAPG
TAF
PAPG 232327Z 2400/2424 VRB04KT P6SM VCSH SCT025 BKN040
     FM240300 VRB04KT P6SM SCT040 SCT120
     FM241700 VRB04KT 4SM -SNRA OVC030
     FM242000 05005KT 6SM -RASN OVC025
      AMD LTD TO CLD VIS AND WIND 2406/2415=

USA.gov is the U.S. government's official web portal to all federal, state and local government web resources and services.